sensor_id;sensor_type;location;lat;lon;timestamp;P1;durP1;ratioP1;P2;durP2;ratioP2
10246;SDS011;5168;47.854;7.944;2023-06-10T00:01:47;4.10;;;3.70;;
10246;SDS011;5168;47.854;7.944;2023-06-10T00:04:13;3.90;;;3.53;;
10246;SDS011;5168;47.854;7.944;2023-06-10T00:06:41;3.83;;;3.50;;
10246;SDS011;5168;47.854;7.944;2023-06-10T00:09:06;4.40;;;4.00;;
10246;SDS011;5168;47.854;7.944;2023-06-10T00:11:39;5.30;;;4.07;;
10246;SDS011;5168;47.854;7.944;2023-06-10T00:14:05;5.20;;;3.83;;
10246;SDS011;5168;47.854;7.944;2023-06-10T00:16:31;4.57;;;4.10;;
10246;SDS011;5168;47.854;7.944;2023-06-10T00:18:58;4.40;;;3.43;;
10246;SDS011;5168;47.854;7.944;2023-06-10T00:21:29;5.77;;;3.93;;
10246;SDS011;5168;47.854;7.944;2023-06-10T00:24:02;4.67;;;4.10;;
10246;SDS011;5168;47.854;7.944;2023-06-10T00:26:28;4.57;;;4.13;;
10246;SDS011;5168;47.854;7.944;2023-06-10T00:28:54;4.47;;;4.00;;
10246;SDS011;5168;47.854;7.944;2023-06-10T00:31:20;4.60;;;3.83;;
10246;SDS011;5168;47.854;7.944;2023-06-10T00:33:46;5.33;;;4.03;;
10246;SDS011;5168;47.854;7.944;2023-06-10T00:36:12;4.00;;;3.53;;
10246;SDS011;5168;47.854;7.944;2023-06-10T00:38:38;5.43;;;4.77;;
10246;SDS011;5168;47.854;7.944;2023-06-10T00:41:05;4.67;;;4.03;;
10246;SDS011;5168;47.854;7.944;2023-06-10T00:43:30;4.80;;;4.30;;
10246;SDS011;5168;47.854;7.944;2023-06-10T00:45:56;3.57;;;3.27;;
10246;SDS011;5168;47.854;7.944;2023-06-10T00:48:22;4.40;;;4.00;;
10246;SDS011;5168;47.854;7.944;2023-06-10T00:50:48;3.87;;;3.53;;
10246;SDS011;5168;47.854;7.944;2023-06-10T00:53:14;4.03;;;3.70;;
10246;SDS011;5168;47.854;7.944;2023-06-10T00:55:40;5.67;;;4.10;;
10246;SDS011;5168;47.854;7.944;2023-06-10T00:58:06;5.60;;;4.37;;
10246;SDS011;5168;47.854;7.944;2023-06-10T01:00:32;4.63;;;4.20;;
10246;SDS011;5168;47.854;7.944;2023-06-10T01:02:57;4.93;;;3.93;;
10246;SDS011;5168;47.854;7.944;2023-06-10T01:05:23;4.23;;;3.83;;
10246;SDS011;5168;47.854;7.944;2023-06-10T01:11:18;4.43;;;4.03;;
10246;SDS011;5168;47.854;7.944;2023-06-10T01:13:32;5.40;;;4.67;;
10246;SDS011;5168;47.854;7.944;2023-06-10T01:16:01;8.03;;;4.70;;
10246;SDS011;5168;47.854;7.944;2023-06-10T01:18:30;5.00;;;4.20;;
10246;SDS011;5168;47.854;7.944;2023-06-10T01:20:56;5.33;;;4.83;;
10246;SDS011;5168;47.854;7.944;2023-06-10T01:23:22;5.20;;;4.13;;
10246;SDS011;5168;47.854;7.944;2023-06-10T01:26:01;5.53;;;4.40;;
10246;SDS011;5168;47.854;7.944;2023-06-10T01:28:31;5.17;;;4.50;;
10246;SDS011;5168;47.854;7.944;2023-06-10T01:31:18;5.07;;;4.57;;
10246;SDS011;5168;47.854;7.944;2023-06-10T01:33:59;7.33;;;4.67;;
10246;SDS011;5168;47.854;7.944;2023-06-10T01:36:25;6.13;;;4.40;;
10246;SDS011;5168;47.854;7.944;2023-06-10T01:38:51;4.60;;;4.10;;
10246;SDS011;5168;47.854;7.944;2023-06-10T01:41:18;4.80;;;4.30;;
10246;SDS011;5168;47.854;7.944;2023-06-10T01:43:46;5.13;;;4.40;;
10246;SDS011;5168;47.854;7.944;2023-06-10T01:46:13;4.77;;;4.27;;
10246;SDS011;5168;47.854;7.944;2023-06-10T01:48:41;6.57;;;4.17;;
10246;SDS011;5168;47.854;7.944;2023-06-10T01:51:07;6.43;;;4.07;;
10246;SDS011;5168;47.854;7.944;2023-06-10T01:53:32;4.67;;;3.97;;
10246;SDS011;5168;47.854;7.944;2023-06-10T01:55:58;5.67;;;4.17;;
10246;SDS011;5168;47.854;7.944;2023-06-10T01:58:23;4.67;;;4.10;;
10246;SDS011;5168;47.854;7.944;2023-06-10T02:00:49;4.77;;;4.33;;
10246;SDS011;5168;47.854;7.944;2023-06-10T02:03:15;4.73;;;4.20;;
10246;SDS011;5168;47.854;7.944;2023-06-10T02:05:41;4.90;;;4.40;;
10246;SDS011;5168;47.854;7.944;2023-06-10T02:08:07;4.40;;;4.00;;
10246;SDS011;5168;47.854;7.944;2023-06-10T02:10:32;4.17;;;3.77;;
10246;SDS011;5168;47.854;7.944;2023-06-10T02:12:58;5.27;;;4.53;;
10246;SDS011;5168;47.854;7.944;2023-06-10T02:15:24;5.33;;;3.80;;
10246;SDS011;5168;47.854;7.944;2023-06-10T02:17:51;5.93;;;4.53;;
10246;SDS011;5168;47.854;7.944;2023-06-10T02:20:17;6.87;;;4.33;;
10246;SDS011;5168;47.854;7.944;2023-06-10T02:22:43;7.17;;;4.53;;
10246;SDS011;5168;47.854;7.944;2023-06-10T02:25:09;7.30;;;4.40;;
10246;SDS011;5168;47.854;7.944;2023-06-10T02:27:35;8.27;;;4.33;;
10246;SDS011;5168;47.854;7.944;2023-06-10T02:30:01;4.67;;;4.23;;
10246;SDS011;5168;47.854;7.944;2023-06-10T02:32:27;5.17;;;4.67;;
10246;SDS011;5168;47.854;7.944;2023-06-10T02:34:53;5.27;;;4.77;;
10246;SDS011;5168;47.854;7.944;2023-06-10T02:37:19;5.07;;;4.43;;
10246;SDS011;5168;47.854;7.944;2023-06-10T02:39:45;7.10;;;4.37;;
10246;SDS011;5168;47.854;7.944;2023-06-10T02:42:11;4.63;;;4.13;;
10246;SDS011;5168;47.854;7.944;2023-06-10T02:44:36;4.60;;;4.20;;
10246;SDS011;5168;47.854;7.944;2023-06-10T02:47:02;5.43;;;4.40;;
10246;SDS011;5168;47.854;7.944;2023-06-10T02:49:28;4.90;;;4.43;;
10246;SDS011;5168;47.854;7.944;2023-06-10T02:51:54;4.90;;;4.37;;
10246;SDS011;5168;47.854;7.944;2023-06-10T02:54:21;5.07;;;4.57;;
10246;SDS011;5168;47.854;7.944;2023-06-10T02:56:47;4.90;;;4.37;;
10246;SDS011;5168;47.854;7.944;2023-06-10T02:59:13;5.20;;;4.70;;
10246;SDS011;5168;47.854;7.944;2023-06-10T03:01:39;6.97;;;4.27;;
10246;SDS011;5168;47.854;7.944;2023-06-10T03:04:05;5.47;;;4.57;;
10246;SDS011;5168;47.854;7.944;2023-06-10T03:06:31;4.73;;;4.33;;
10246;SDS011;5168;47.854;7.944;2023-06-10T03:09:00;5.30;;;4.63;;
10246;SDS011;5168;47.854;7.944;2023-06-10T03:11:26;5.13;;;4.60;;
10246;SDS011;5168;47.854;7.944;2023-06-10T03:13:52;4.83;;;4.40;;
10246;SDS011;5168;47.854;7.944;2023-06-10T03:16:20;4.77;;;4.33;;
10246;SDS011;5168;47.854;7.944;2023-06-10T03:18:46;4.83;;;4.40;;
10246;SDS011;5168;47.854;7.944;2023-06-10T03:21:11;5.23;;;4.40;;
10246;SDS011;5168;47.854;7.944;2023-06-10T03:23:38;5.43;;;4.57;;
10246;SDS011;5168;47.854;7.944;2023-06-10T03:26:04;5.60;;;4.60;;
10246;SDS011;5168;47.854;7.944;2023-06-10T03:28:33;5.03;;;4.30;;
10246;SDS011;5168;47.854;7.944;2023-06-10T03:30:58;4.60;;;4.20;;
10246;SDS011;5168;47.854;7.944;2023-06-10T03:33:24;4.80;;;4.40;;
10246;SDS011;5168;47.854;7.944;2023-06-10T03:35:51;5.00;;;4.50;;
10246;SDS011;5168;47.854;7.944;2023-06-10T03:38:16;5.67;;;5.07;;
10246;SDS011;5168;47.854;7.944;2023-06-10T03:40:42;6.10;;;5.03;;
10246;SDS011;5168;47.854;7.944;2023-06-10T03:43:08;5.27;;;4.77;;
10246;SDS011;5168;47.854;7.944;2023-06-10T03:45:34;5.03;;;4.50;;
10246;SDS011;5168;47.854;7.944;2023-06-10T03:48:00;5.27;;;4.77;;
10246;SDS011;5168;47.854;7.944;2023-06-10T03:50:26;5.20;;;4.70;;
10246;SDS011;5168;47.854;7.944;2023-06-10T03:52:51;5.33;;;4.83;;
10246;SDS011;5168;47.854;7.944;2023-06-10T03:55:17;4.90;;;4.40;;
10246;SDS011;5168;47.854;7.944;2023-06-10T03:57:46;5.67;;;5.17;;
10246;SDS011;5168;47.854;7.944;2023-06-10T04:00:12;5.40;;;4.90;;
10246;SDS011;5168;47.854;7.944;2023-06-10T04:02:38;6.10;;;5.50;;
10246;SDS011;5168;47.854;7.944;2023-06-10T04:05:18;5.93;;;4.90;;
10246;SDS011;5168;47.854;7.944;2023-06-10T04:07:47;5.80;;;4.83;;
10246;SDS011;5168;47.854;7.944;2023-06-10T04:10:13;5.03;;;4.43;;
10246;SDS011;5168;47.854;7.944;2023-06-10T04:12:39;5.33;;;4.83;;
10246;SDS011;5168;47.854;7.944;2023-06-10T04:15:06;4.90;;;4.37;;
10246;SDS011;5168;47.854;7.944;2023-06-10T04:17:32;5.27;;;4.77;;
10246;SDS011;5168;47.854;7.944;2023-06-10T04:19:57;5.50;;;4.57;;
10246;SDS011;5168;47.854;7.944;2023-06-10T04:22:23;5.00;;;4.60;;
10246;SDS011;5168;47.854;7.944;2023-06-10T04:24:48;5.13;;;4.73;;
10246;SDS011;5168;47.854;7.944;2023-06-10T04:27:14;5.13;;;4.67;;
10246;SDS011;5168;47.854;7.944;2023-06-10T04:29:40;5.60;;;5.00;;
10246;SDS011;5168;47.854;7.944;2023-06-10T04:32:06;5.60;;;5.10;;
10246;SDS011;5168;47.854;7.944;2023-06-10T04:34:33;4.73;;;4.33;;
10246;SDS011;5168;47.854;7.944;2023-06-10T04:36:59;5.23;;;4.73;;
10246;SDS011;5168;47.854;7.944;2023-06-10T04:39:24;4.60;;;4.20;;
10246;SDS011;5168;47.854;7.944;2023-06-10T04:41:51;5.93;;;4.50;;
10246;SDS011;5168;47.854;7.944;2023-06-10T04:44:16;5.87;;;5.13;;
10246;SDS011;5168;47.854;7.944;2023-06-10T04:46:42;5.00;;;4.53;;
10246;SDS011;5168;47.854;7.944;2023-06-10T04:49:07;5.63;;;4.73;;
10246;SDS011;5168;47.854;7.944;2023-06-10T04:51:33;4.83;;;4.43;;
10246;SDS011;5168;47.854;7.944;2023-06-10T04:53:59;5.27;;;4.77;;
10246;SDS011;5168;47.854;7.944;2023-06-10T04:56:28;5.20;;;4.70;;
10246;SDS011;5168;47.854;7.944;2023-06-10T04:58:55;6.03;;;5.33;;
10246;SDS011;5168;47.854;7.944;2023-06-10T05:01:23;5.30;;;4.80;;
10246;SDS011;5168;47.854;7.944;2023-06-10T05:03:49;5.87;;;5.00;;
10246;SDS011;5168;47.854;7.944;2023-06-10T05:06:14;5.00;;;4.57;;
10246;SDS011;5168;47.854;7.944;2023-06-10T05:08:40;5.57;;;4.83;;
10246;SDS011;5168;47.854;7.944;2023-06-10T05:11:06;5.20;;;4.70;;
10246;SDS011;5168;47.854;7.944;2023-06-10T05:13:32;5.70;;;5.20;;
10246;SDS011;5168;47.854;7.944;2023-06-10T05:15:58;5.33;;;4.83;;
10246;SDS011;5168;47.854;7.944;2023-06-10T05:18:24;4.70;;;4.30;;
10246;SDS011;5168;47.854;7.944;2023-06-10T05:20:49;5.63;;;5.03;;
10246;SDS011;5168;47.854;7.944;2023-06-10T05:23:15;5.17;;;4.73;;
10246;SDS011;5168;47.854;7.944;2023-06-10T05:25:40;5.87;;;5.17;;
10246;SDS011;5168;47.854;7.944;2023-06-10T05:28:07;5.37;;;4.93;;
10246;SDS011;5168;47.854;7.944;2023-06-10T05:30:35;6.37;;;5.03;;
10246;SDS011;5168;47.854;7.944;2023-06-10T05:33:01;5.43;;;4.93;;
10246;SDS011;5168;47.854;7.944;2023-06-10T05:35:26;5.30;;;4.80;;
10246;SDS011;5168;47.854;7.944;2023-06-10T05:37:52;6.27;;;5.67;;
10246;SDS011;5168;47.854;7.944;2023-06-10T05:40:18;5.50;;;5.00;;
10246;SDS011;5168;47.854;7.944;2023-06-10T05:42:44;6.07;;;5.23;;
10246;SDS011;5168;47.854;7.944;2023-06-10T05:45:10;5.53;;;5.03;;
10246;SDS011;5168;47.854;7.944;2023-06-10T05:47:35;6.33;;;5.40;;
10246;SDS011;5168;47.854;7.944;2023-06-10T05:50:01;5.43;;;4.93;;
10246;SDS011;5168;47.854;7.944;2023-06-10T05:52:27;5.10;;;4.70;;
10246;SDS011;5168;47.854;7.944;2023-06-10T05:54:52;6.20;;;5.40;;
10246;SDS011;5168;47.854;7.944;2023-06-10T05:57:19;5.53;;;5.03;;
10246;SDS011;5168;47.854;7.944;2023-06-10T05:59:45;5.53;;;4.97;;
10246;SDS011;5168;47.854;7.944;2023-06-10T06:02:11;6.10;;;4.67;;
10246;SDS011;5168;47.854;7.944;2023-06-10T06:04:36;8.33;;;4.77;;
10246;SDS011;5168;47.854;7.944;2023-06-10T06:07:02;5.53;;;4.63;;
10246;SDS011;5168;47.854;7.944;2023-06-10T06:09:27;5.37;;;4.87;;
10246;SDS011;5168;47.854;7.944;2023-06-10T06:11:53;5.93;;;4.60;;
10246;SDS011;5168;47.854;7.944;2023-06-10T06:14:18;5.33;;;4.80;;
10246;SDS011;5168;47.854;7.944;2023-06-10T06:16:44;4.80;;;4.40;;
10246;SDS011;5168;47.854;7.944;2023-06-10T06:19:09;5.10;;;4.60;;
10246;SDS011;5168;47.854;7.944;2023-06-10T06:21:36;4.90;;;4.40;;
10246;SDS011;5168;47.854;7.944;2023-06-10T06:24:02;6.40;;;4.53;;
10246;SDS011;5168;47.854;7.944;2023-06-10T06:26:27;5.50;;;4.80;;
10246;SDS011;5168;47.854;7.944;2023-06-10T06:28:53;4.80;;;4.30;;
10246;SDS011;5168;47.854;7.944;2023-06-10T06:31:18;5.47;;;4.97;;
10246;SDS011;5168;47.854;7.944;2023-06-10T06:33:44;5.63;;;4.90;;
10246;SDS011;5168;47.854;7.944;2023-06-10T06:36:10;5.40;;;4.90;;
10246;SDS011;5168;47.854;7.944;2023-06-10T06:38:35;5.00;;;4.50;;
10246;SDS011;5168;47.854;7.944;2023-06-10T06:41:01;4.53;;;4.13;;
10246;SDS011;5168;47.854;7.944;2023-06-10T06:43:28;4.78;;;4.28;;
10246;SDS011;5168;47.854;7.944;2023-06-10T06:45:55;4.93;;;4.50;;
10246;SDS011;5168;47.854;7.944;2023-06-10T06:48:21;4.38;;;3.90;;
10246;SDS011;5168;47.854;7.944;2023-06-10T06:50:47;4.32;;;3.92;;
10246;SDS011;5168;47.854;7.944;2023-06-10T06:53:12;4.55;;;4.15;;
10246;SDS011;5168;47.854;7.944;2023-06-10T06:55:38;4.47;;;4.07;;
10246;SDS011;5168;47.854;7.944;2023-06-10T06:58:03;4.55;;;4.15;;
10246;SDS011;5168;47.854;7.944;2023-06-10T07:00:29;5.35;;;4.85;;
10246;SDS011;5168;47.854;7.944;2023-06-10T07:02:55;4.63;;;4.22;;
10246;SDS011;5168;47.854;7.944;2023-06-10T07:05:22;5.53;;;4.32;;
10246;SDS011;5168;47.854;7.944;2023-06-10T07:07:48;4.53;;;4.13;;
10246;SDS011;5168;47.854;7.944;2023-06-10T07:10:19;5.13;;;4.63;;
10246;SDS011;5168;47.854;7.944;2023-06-10T07:12:49;4.85;;;4.38;;
10246;SDS011;5168;47.854;7.944;2023-06-10T07:15:15;4.63;;;3.90;;
10246;SDS011;5168;47.854;7.944;2023-06-10T07:17:41;4.70;;;4.20;;
10246;SDS011;5168;47.854;7.944;2023-06-10T07:20:06;4.65;;;4.25;;
10246;SDS011;5168;47.854;7.944;2023-06-10T07:22:32;4.60;;;4.18;;
10246;SDS011;5168;47.854;7.944;2023-06-10T07:24:58;4.57;;;4.15;;
10246;SDS011;5168;47.854;7.944;2023-06-10T07:27:23;4.88;;;4.20;;
10246;SDS011;5168;47.854;7.944;2023-06-10T07:29:50;4.90;;;4.50;;
10246;SDS011;5168;47.854;7.944;2023-06-10T07:32:16;4.70;;;4.30;;
10246;SDS011;5168;47.854;7.944;2023-06-10T07:34:41;5.25;;;4.75;;
10246;SDS011;5168;47.854;7.944;2023-06-10T07:37:07;4.82;;;4.35;;
10246;SDS011;5168;47.854;7.944;2023-06-10T07:39:33;4.30;;;3.90;;
10246;SDS011;5168;47.854;7.944;2023-06-10T07:41:59;4.90;;;4.05;;
10246;SDS011;5168;47.854;7.944;2023-06-10T07:44:25;6.60;;;4.55;;
10246;SDS011;5168;47.854;7.944;2023-06-10T07:46:51;4.40;;;4.00;;
10246;SDS011;5168;47.854;7.944;2023-06-10T07:49:16;4.50;;;4.10;;
10246;SDS011;5168;47.854;7.944;2023-06-10T07:51:42;5.63;;;4.13;;
10246;SDS011;5168;47.854;7.944;2023-06-10T07:54:07;5.25;;;4.35;;
10246;SDS011;5168;47.854;7.944;2023-06-10T07:56:33;4.40;;;4.00;;
10246;SDS011;5168;47.854;7.944;2023-06-10T07:58:58;5.35;;;4.20;;
10246;SDS011;5168;47.854;7.944;2023-06-10T08:01:24;5.10;;;4.28;;
10246;SDS011;5168;47.854;7.944;2023-06-10T08:03:49;5.05;;;4.55;;
10246;SDS011;5168;47.854;7.944;2023-06-10T08:06:15;4.43;;;4.03;;
10246;SDS011;5168;47.854;7.944;2023-06-10T08:08:42;4.60;;;4.20;;
10246;SDS011;5168;47.854;7.944;2023-06-10T08:11:08;4.95;;;4.07;;
10246;SDS011;5168;47.854;7.944;2023-06-10T08:13:37;4.63;;;3.92;;
10246;SDS011;5168;47.854;7.944;2023-06-10T08:16:04;4.63;;;4.22;;
10246;SDS011;5168;47.854;7.944;2023-06-10T08:18:29;4.47;;;4.07;;
10246;SDS011;5168;47.854;7.944;2023-06-10T08:20:55;4.82;;;4.32;;
10246;SDS011;5168;47.854;7.944;2023-06-10T08:23:20;4.28;;;3.88;;
10246;SDS011;5168;47.854;7.944;2023-06-10T08:25:46;5.18;;;4.03;;
10246;SDS011;5168;47.854;7.944;2023-06-10T08:28:12;4.13;;;3.80;;
10246;SDS011;5168;47.854;7.944;2023-06-10T08:30:37;4.28;;;3.90;;
10246;SDS011;5168;47.854;7.944;2023-06-10T08:33:03;4.25;;;3.85;;
10246;SDS011;5168;47.854;7.944;2023-06-10T08:35:28;7.43;;;4.47;;
10246;SDS011;5168;47.854;7.944;2023-06-10T08:37:54;4.45;;;3.63;;
10246;SDS011;5168;47.854;7.944;2023-06-10T08:40:20;6.22;;;4.00;;
10246;SDS011;5168;47.854;7.944;2023-06-10T08:42:49;5.13;;;4.13;;
10246;SDS011;5168;47.854;7.944;2023-06-10T08:45:26;4.15;;;3.80;;
10246;SDS011;5168;47.854;7.944;2023-06-10T08:48:00;5.20;;;4.13;;
10246;SDS011;5168;47.854;7.944;2023-06-10T08:50:32;4.22;;;3.88;;
10246;SDS011;5168;47.854;7.944;2023-06-10T08:53:00;6.68;;;4.13;;
10246;SDS011;5168;47.854;7.944;2023-06-10T08:55:30;5.40;;;3.95;;
10246;SDS011;5168;47.854;7.944;2023-06-10T08:58:00;4.53;;;4.13;;
10246;SDS011;5168;47.854;7.944;2023-06-10T09:00:26;5.95;;;4.05;;
10246;SDS011;5168;47.854;7.944;2023-06-10T09:02:53;4.38;;;3.97;;
10246;SDS011;5168;47.854;7.944;2023-06-10T09:05:20;5.85;;;4.40;;
10246;SDS011;5168;47.854;7.944;2023-06-10T09:07:47;5.65;;;4.00;;
10246;SDS011;5168;47.854;7.944;2023-06-10T09:10:14;4.97;;;4.40;;
10246;SDS011;5168;47.854;7.944;2023-06-10T09:12:39;4.38;;;3.97;;
10246;SDS011;5168;47.854;7.944;2023-06-10T09:15:05;4.53;;;4.13;;
10246;SDS011;5168;47.854;7.944;2023-06-10T09:17:31;4.70;;;4.20;;
10246;SDS011;5168;47.854;7.944;2023-06-10T09:19:59;4.30;;;3.90;;
10246;SDS011;5168;47.854;7.944;2023-06-10T09:22:25;4.95;;;4.45;;
10246;SDS011;5168;47.854;7.944;2023-06-10T09:24:51;4.75;;;4.22;;
10246;SDS011;5168;47.854;7.944;2023-06-10T09:27:29;6.47;;;4.60;;
10246;SDS011;5168;47.854;7.944;2023-06-10T09:29:55;5.00;;;4.60;;
10246;SDS011;5168;47.854;7.944;2023-06-10T09:32:22;5.13;;;4.63;;
10246;SDS011;5168;47.854;7.944;2023-06-10T09:34:49;5.32;;;4.57;;
10246;SDS011;5168;47.854;7.944;2023-06-10T09:37:22;5.28;;;4.78;;
10246;SDS011;5168;47.854;7.944;2023-06-10T09:40:03;5.32;;;4.55;;
10246;SDS011;5168;47.854;7.944;2023-06-10T09:42:34;6.57;;;4.78;;
10246;SDS011;5168;47.854;7.944;2023-06-10T09:45:03;4.63;;;4.10;;
10246;SDS011;5168;47.854;7.944;2023-06-10T09:47:30;4.75;;;4.30;;
10246;SDS011;5168;47.854;7.944;2023-06-10T09:49:56;5.20;;;4.70;;
10246;SDS011;5168;47.854;7.944;2023-06-10T09:52:22;5.63;;;4.80;;
10246;SDS011;5168;47.854;7.944;2023-06-10T09:54:49;5.45;;;4.95;;
10246;SDS011;5168;47.854;7.944;2023-06-10T09:57:19;5.13;;;4.63;;
10246;SDS011;5168;47.854;7.944;2023-06-10T09:59:46;5.32;;;4.82;;
10246;SDS011;5168;47.854;7.944;2023-06-10T10:02:15;4.88;;;4.47;;
10246;SDS011;5168;47.854;7.944;2023-06-10T10:04:42;5.15;;;4.65;;
10246;SDS011;5168;47.854;7.944;2023-06-10T10:07:08;6.18;;;4.53;;
10246;SDS011;5168;47.854;7.944;2023-06-10T10:09:37;5.18;;;4.75;;
10246;SDS011;5168;47.854;7.944;2023-06-10T10:12:11;5.30;;;4.70;;
10246;SDS011;5168;47.854;7.944;2023-06-10T10:14:39;8.05;;;4.90;;
10246;SDS011;5168;47.854;7.944;2023-06-10T10:17:11;5.22;;;4.78;;
10246;SDS011;5168;47.854;7.944;2023-06-10T10:19:43;6.60;;;4.82;;
10246;SDS011;5168;47.854;7.944;2023-06-10T10:22:20;5.28;;;4.72;;
10246;SDS011;5168;47.854;7.944;2023-06-10T10:24:51;6.35;;;4.75;;
10246;SDS011;5168;47.854;7.944;2023-06-10T10:30:21;6.57;;;5.32;;
10246;SDS011;5168;47.854;7.944;2023-06-10T10:35:30;5.78;;;5.22;;
10246;SDS011;5168;47.854;7.944;2023-06-10T10:37:57;5.75;;;5.20;;
10246;SDS011;5168;47.854;7.944;2023-06-10T10:40:23;5.65;;;5.15;;
10246;SDS011;5168;47.854;7.944;2023-06-10T10:42:50;5.53;;;5.03;;
10246;SDS011;5168;47.854;7.944;2023-06-10T10:45:17;5.00;;;4.57;;
10246;SDS011;5168;47.854;7.944;2023-06-10T10:47:44;5.70;;;5.20;;
10246;SDS011;5168;47.854;7.944;2023-06-10T10:50:17;5.32;;;4.90;;
10246;SDS011;5168;47.854;7.944;2023-06-10T10:52:47;5.85;;;5.35;;
10246;SDS011;5168;47.854;7.944;2023-06-10T10:55:25;5.75;;;5.22;;
10246;SDS011;5168;47.854;7.944;2023-06-10T10:58:05;6.25;;;5.65;;
10246;SDS011;5168;47.854;7.944;2023-06-10T11:02:58;6.28;;;5.38;;
10246;SDS011;5168;47.854;7.944;2023-06-10T11:05:35;6.88;;;5.75;;
10246;SDS011;5168;47.854;7.944;2023-06-10T11:08:08;5.70;;;5.20;;
10246;SDS011;5168;47.854;7.944;2023-06-10T11:10:37;5.63;;;5.13;;
10246;SDS011;5168;47.854;7.944;2023-06-10T11:13:15;5.80;;;5.30;;
10246;SDS011;5168;47.854;7.944;2023-06-10T11:15:45;6.20;;;5.60;;
10246;SDS011;5168;47.854;7.944;2023-06-10T11:26:13;5.63;;;5.13;;
10246;SDS011;5168;47.854;7.944;2023-06-10T11:31:18;5.90;;;5.28;;
10246;SDS011;5168;47.854;7.944;2023-06-10T11:33:46;5.97;;;5.38;;
10246;SDS011;5168;47.854;7.944;2023-06-10T11:36:12;5.88;;;5.38;;
10246;SDS011;5168;47.854;7.944;2023-06-10T11:38:38;6.93;;;5.88;;
10246;SDS011;5168;47.854;7.944;2023-06-10T11:41:05;6.38;;;5.78;;
10246;SDS011;5168;47.854;7.944;2023-06-10T11:43:32;5.97;;;5.47;;
10246;SDS011;5168;47.854;7.944;2023-06-10T11:45:58;5.95;;;5.35;;
10246;SDS011;5168;47.854;7.944;2023-06-10T11:48:24;5.75;;;5.22;;
10246;SDS011;5168;47.854;7.944;2023-06-10T11:50:53;9.93;;;6.20;;
10246;SDS011;5168;47.854;7.944;2023-06-10T11:53:18;5.85;;;5.05;;
10246;SDS011;5168;47.854;7.944;2023-06-10T11:55:48;6.65;;;5.50;;
10246;SDS011;5168;47.854;7.944;2023-06-10T11:58:16;5.57;;;5.07;;
10246;SDS011;5168;47.854;7.944;2023-06-10T12:03:16;6.82;;;6.15;;
10246;SDS011;5168;47.854;7.944;2023-06-10T12:05:58;6.28;;;5.68;;
10246;SDS011;5168;47.854;7.944;2023-06-10T12:08:25;6.03;;;5.53;;
10246;SDS011;5168;47.854;7.944;2023-06-10T12:10:52;6.30;;;5.60;;
10246;SDS011;5168;47.854;7.944;2023-06-10T12:13:18;5.80;;;5.30;;
10246;SDS011;5168;47.854;7.944;2023-06-10T12:15:44;6.95;;;6.35;;
10246;SDS011;5168;47.854;7.944;2023-06-10T12:18:20;6.68;;;5.97;;
10246;SDS011;5168;47.854;7.944;2023-06-10T12:20:49;6.45;;;5.85;;
10246;SDS011;5168;47.854;7.944;2023-06-10T12:23:16;6.30;;;5.80;;
10246;SDS011;5168;47.854;7.944;2023-06-10T12:25:52;5.93;;;5.35;;
10246;SDS011;5168;47.854;7.944;2023-06-10T12:28:25;6.10;;;5.60;;
10246;SDS011;5168;47.854;7.944;2023-06-10T12:30:51;5.78;;;5.28;;
10246;SDS011;5168;47.854;7.944;2023-06-10T12:33:31;5.78;;;5.28;;
10246;SDS011;5168;47.854;7.944;2023-06-10T12:35:56;6.35;;;5.65;;
10246;SDS011;5168;47.854;7.944;2023-06-10T12:38:22;6.57;;;5.45;;
10246;SDS011;5168;47.854;7.944;2023-06-10T12:40:52;6.20;;;5.60;;
10246;SDS011;5168;47.854;7.944;2023-06-10T12:43:21;5.60;;;5.13;;
10246;SDS011;5168;47.854;7.944;2023-06-10T12:45:48;7.70;;;5.70;;
10246;SDS011;5168;47.854;7.944;2023-06-10T12:48:21;5.72;;;5.22;;
10246;SDS011;5168;47.854;7.944;2023-06-10T12:50:52;5.93;;;5.32;;
10246;SDS011;5168;47.854;7.944;2023-06-10T12:53:19;6.60;;;5.88;;
10246;SDS011;5168;47.854;7.944;2023-06-10T12:55:46;6.30;;;5.70;;
10246;SDS011;5168;47.854;7.944;2023-06-10T12:58:12;6.22;;;5.72;;
10246;SDS011;5168;47.854;7.944;2023-06-10T13:00:38;5.60;;;5.07;;
10246;SDS011;5168;47.854;7.944;2023-06-10T13:03:04;5.20;;;4.70;;
10246;SDS011;5168;47.854;7.944;2023-06-10T13:05:30;5.80;;;5.30;;
10246;SDS011;5168;47.854;7.944;2023-06-10T13:07:57;5.45;;;4.90;;
10246;SDS011;5168;47.854;7.944;2023-06-10T13:10:23;4.68;;;4.28;;
10246;SDS011;5168;47.854;7.944;2023-06-10T13:12:49;5.40;;;4.90;;
10246;SDS011;5168;47.854;7.944;2023-06-10T13:15:15;5.03;;;4.30;;
10246;SDS011;5168;47.854;7.944;2023-06-10T13:17:42;4.70;;;4.30;;
10246;SDS011;5168;47.854;7.944;2023-06-10T13:20:09;5.05;;;4.65;;
10246;SDS011;5168;47.854;7.944;2023-06-10T13:22:34;5.30;;;4.80;;
10246;SDS011;5168;47.854;7.944;2023-06-10T13:25:04;5.28;;;4.78;;
10246;SDS011;5168;47.854;7.944;2023-06-10T13:27:32;12.57;;;6.78;;
10246;SDS011;5168;47.854;7.944;2023-06-10T13:29:58;7.25;;;5.93;;
10246;SDS011;5168;47.854;7.944;2023-06-10T13:32:24;6.28;;;5.50;;
10246;SDS011;5168;47.854;7.944;2023-06-10T13:34:50;12.98;;;5.30;;
10246;SDS011;5168;47.854;7.944;2023-06-10T13:37:16;6.72;;;5.18;;
10246;SDS011;5168;47.854;7.944;2023-06-10T13:39:45;5.32;;;4.82;;
10246;SDS011;5168;47.854;7.944;2023-06-10T13:42:15;8.43;;;5.38;;
10246;SDS011;5168;47.854;7.944;2023-06-10T13:44:41;6.47;;;4.40;;
10246;SDS011;5168;47.854;7.944;2023-06-10T13:47:07;5.60;;;5.07;;
10246;SDS011;5168;47.854;7.944;2023-06-10T13:49:33;5.80;;;5.15;;
10246;SDS011;5168;47.854;7.944;2023-06-10T13:51:58;5.88;;;4.80;;
10246;SDS011;5168;47.854;7.944;2023-06-10T13:54:24;5.90;;;5.35;;
10246;SDS011;5168;47.854;7.944;2023-06-10T13:56:49;5.63;;;5.00;;
10246;SDS011;5168;47.854;7.944;2023-06-10T13:59:15;5.70;;;5.28;;
10246;SDS011;5168;47.854;7.944;2023-06-10T14:01:40;6.45;;;5.82;;
10246;SDS011;5168;47.854;7.944;2023-06-10T14:04:07;6.30;;;5.70;;
10246;SDS011;5168;47.854;7.944;2023-06-10T14:06:33;6.20;;;5.60;;
10246;SDS011;5168;47.854;7.944;2023-06-10T14:08:59;6.53;;;5.93;;
10246;SDS011;5168;47.854;7.944;2023-06-10T14:11:25;6.65;;;6.05;;
10246;SDS011;5168;47.854;7.944;2023-06-10T14:13:50;7.20;;;5.82;;
10246;SDS011;5168;47.854;7.944;2023-06-10T14:16:16;6.88;;;6.18;;
10246;SDS011;5168;47.854;7.944;2023-06-10T14:18:41;7.65;;;6.60;;
10246;SDS011;5168;47.854;7.944;2023-06-10T14:21:07;6.97;;;6.38;;
10246;SDS011;5168;47.854;7.944;2023-06-10T14:23:33;6.57;;;5.97;;
10246;SDS011;5168;47.854;7.944;2023-06-10T14:25:59;6.40;;;5.80;;
10246;SDS011;5168;47.854;7.944;2023-06-10T14:28:25;6.50;;;5.47;;
10246;SDS011;5168;47.854;7.944;2023-06-10T14:30:52;5.90;;;5.40;;
10246;SDS011;5168;47.854;7.944;2023-06-10T14:33:18;6.07;;;5.45;;
10246;SDS011;5168;47.854;7.944;2023-06-10T14:35:43;6.05;;;5.45;;
10246;SDS011;5168;47.854;7.944;2023-06-10T14:38:09;6.05;;;5.55;;
10246;SDS011;5168;47.854;7.944;2023-06-10T14:40:35;5.90;;;5.40;;
10246;SDS011;5168;47.854;7.944;2023-06-10T14:43:00;5.25;;;4.85;;
10246;SDS011;5168;47.854;7.944;2023-06-10T14:45:29;6.25;;;5.65;;
10246;SDS011;5168;47.854;7.944;2023-06-10T14:47:54;6.78;;;5.78;;
10246;SDS011;5168;47.854;7.944;2023-06-10T14:50:20;5.82;;;5.15;;
10246;SDS011;5168;47.854;7.944;2023-06-10T14:52:45;5.82;;;5.32;;
10246;SDS011;5168;47.854;7.944;2023-06-10T14:55:11;5.63;;;5.00;;
10246;SDS011;5168;47.854;7.944;2023-06-10T14:57:37;6.28;;;5.68;;
10246;SDS011;5168;47.854;7.944;2023-06-10T15:00:02;5.35;;;4.93;;
10246;SDS011;5168;47.854;7.944;2023-06-10T15:02:28;5.43;;;4.95;;
10246;SDS011;5168;47.854;7.944;2023-06-10T15:04:54;5.57;;;4.63;;
10246;SDS011;5168;47.854;7.944;2023-06-10T15:07:19;5.53;;;4.88;;
10246;SDS011;5168;47.854;7.944;2023-06-10T15:09:45;5.65;;;5.05;;
10246;SDS011;5168;47.854;7.944;2023-06-10T15:12:10;7.43;;;5.28;;
10246;SDS011;5168;47.854;7.944;2023-06-10T15:14:36;5.13;;;4.60;;
10246;SDS011;5168;47.854;7.944;2023-06-10T15:17:01;5.53;;;4.78;;
10246;SDS011;5168;47.854;7.944;2023-06-10T15:19:27;5.60;;;5.00;;
10246;SDS011;5168;47.854;7.944;2023-06-10T15:21:53;4.53;;;4.13;;
10246;SDS011;5168;47.854;7.944;2023-06-10T15:24:18;5.07;;;4.57;;